createdAt,value
2022-09-18T00:04:29.186Z,100057.31
2022-09-18T00:09:32.118Z,100051.53
2022-09-18T00:14:36.799Z,100052.06
2022-09-18T00:19:39.541Z,100044.06
2022-09-18T00:24:42.096Z,100046.63
2022-09-18T00:29:46.242Z,100053.66
2022-09-18T00:34:48.965Z,100057.72
2022-09-18T00:39:51.568Z,100053.94
2022-09-18T00:44:55.896Z,100052.50
2022-09-18T00:50:04.841Z,100057.94
2022-09-18T00:55:10.900Z,100056.72
2022-09-18T01:00:16.269Z,100065.66
2022-09-18T01:05:30.084Z,100078.53
2022-09-18T01:10:47.511Z,100083.00
2022-09-18T01:15:59.245Z,100079.28
2022-09-18T01:21:11.478Z,100082.59
2022-09-18T01:26:28.951Z,100087.09
2022-09-18T01:31:37.786Z,100088.19
2022-09-18T01:36:42.938Z,100074.59
2022-09-18T01:41:50.730Z,100076.31
2022-09-18T01:46:58.556Z,100076.31
2022-09-18T01:52:09.605Z,100066.78
2022-09-18T01:57:16.785Z,100076.16
2022-09-18T02:02:29.007Z,100077.47
2022-09-18T02:07:40.842Z,100071.88
2022-09-18T02:12:45.277Z,100080.69
2022-09-18T02:17:54.733Z,100082.63
2022-09-18T02:23:05.898Z,100081.00
2022-09-18T02:28:10.971Z,100080.06
2022-09-18T02:33:27.296Z,100072.28
2022-09-18T02:38:36.721Z,100068.91
2022-09-18T02:43:50.156Z,100063.53
2022-09-18T02:49:08.373Z,100057.19
2022-09-18T02:54:16.119Z,100050.13
2022-09-18T02:59:25.058Z,100061.66
2022-09-18T03:04:33.409Z,100059.00
2022-09-18T03:09:38.846Z,100033.69
2022-09-18T03:14:42.273Z,100045.84
2022-09-18T03:19:46.449Z,100043.78
2022-09-18T03:24:49.497Z,100049.66
2022-09-18T03:29:53.738Z,100053.41
2022-09-18T03:35:01.172Z,100055.19
2022-09-18T03:40:05.714Z,100045.50
2022-09-18T03:45:09.716Z,100058.53
2022-09-18T03:50:15.030Z,100052.56
2022-09-18T03:55:21.165Z,100047.66
2022-09-18T04:00:39.742Z,100050.78
2022-09-18T04:05:51.086Z,100049.81
2022-09-18T04:11:06.090Z,100053.06
2022-09-18T04:16:10.771Z,100061.38
2022-09-18T04:21:14.995Z,100045.63
2022-09-18T04:26:18.092Z,100054.06
2022-09-18T04:31:27.851Z,100057.56
2022-09-18T04:36:33.388Z,100044.06
2022-09-18T04:41:36.847Z,100042.66
2022-09-18T04:46:41.084Z,100035.31
2022-09-18T04:51:45.268Z,100037.84
2022-09-18T04:56:50.196Z,100028.72
2022-09-18T05:01:53.804Z,100040.16
2022-09-18T05:06:57.947Z,100044.69
2022-09-18T05:12:00.853Z,100032.84
2022-09-18T05:17:03.813Z,100034.56
2022-09-18T05:22:14.517Z,100034.69
2022-09-18T05:27:26.947Z,100039.06
2022-09-18T05:32:31.258Z,100039.31
2022-09-18T05:37:35.354Z,100038.09
2022-09-18T05:42:38.453Z,100039.56
2022-09-18T05:47:41.128Z,100018.97
2022-09-18T05:52:46.394Z,100025.13
2022-09-18T05:57:53.097Z,100034.91
2022-09-18T06:02:57.886Z,100052.22
2022-09-18T06:08:04.468Z,100035.47
2022-09-18T06:13:10.303Z,100039.91
2022-09-18T06:18:18.379Z,100037.38
2022-09-18T06:23:24.164Z,100028.97
2022-09-18T06:28:35.284Z,100043.09
2022-09-18T06:33:40.155Z,100047.97
2022-09-18T06:38:44.639Z,100039.69
2022-09-18T06:43:50.119Z,100037.81
2022-09-18T06:49:22.079Z,100035.41
2022-09-18T06:54:26.261Z,100028.72
2022-09-18T06:59:30.850Z,100022.25
2022-09-18T07:04:35.169Z,100026.09
2022-09-18T07:09:39.431Z,100034.97
2022-09-18T07:14:51.580Z,100023.19
2022-09-18T07:19:55.787Z,100030.09
2022-09-18T07:25:09.173Z,100035.22
2022-09-18T07:30:13.181Z,100026.09
2022-09-18T07:35:17.495Z,100031.66
2022-09-18T07:40:21.818Z,100026.69
2022-09-18T07:45:44.824Z,100023.66
2022-09-18T07:50:48.039Z,100024.84
2022-09-18T07:55:55.803Z,100035.78
2022-09-18T08:01:02.120Z,100032.78
2022-09-18T08:06:07.007Z,100029.97
2022-09-18T08:11:11.985Z,100033.69
2022-09-18T08:16:22.135Z,100030.59
2022-09-18T08:21:45.227Z,100018.06
2022-09-18T08:26:52.594Z,100040.13
2022-09-18T08:31:55.632Z,100040.16
2022-09-18T08:36:58.626Z,100034.69
2022-09-18T08:42:30.091Z,100044.44
2022-09-18T08:47:37.100Z,100039.00
2022-09-18T08:52:46.587Z,100037.97
2022-09-18T08:58:08.656Z,100027.34
2022-09-18T09:03:29.392Z,100035.63
2022-09-18T09:09:21.212Z,100040.50
2022-09-18T09:14:57.441Z,100059.91
2022-09-18T09:20:08.047Z,100034.69
2022-09-18T09:25:21.845Z,100047.13
2022-09-18T09:30:49.411Z,100035.63
2022-09-18T09:36:16.120Z,100048.94
2022-09-18T09:41:29.058Z,100036.97
2022-09-18T09:46:48.253Z,100041.13
2022-09-18T09:51:59.928Z,100024.03
2022-09-18T09:57:15.208Z,100033.06
2022-09-18T10:02:37.441Z,100027.34
2022-09-18T10:07:48.665Z,100035.00
2022-09-18T10:12:54.040Z,100036.22
2022-09-18T10:18:02.777Z,100032.00
2022-09-18T10:23:11.935Z,100038.97
2022-09-18T10:28:15.824Z,100028.41
2022-09-18T10:33:33.172Z,100027.88
2022-09-18T10:38:39.358Z,100008.22
2022-09-18T10:44:07.173Z,100007.91
2022-09-18T10:49:20.770Z,100008.13
2022-09-18T10:54:24.917Z,100019.28
2022-09-18T10:59:37.852Z,100020.47
2022-09-18T11:04:42.232Z,100006.00
2022-09-18T11:09:46.614Z,100010.44
2022-09-18T11:14:57.091Z,100004.81
2022-09-18T11:20:04.298Z,100002.78
2022-09-18T11:25:23.559Z,100001.78
2022-09-18T11:30:32.873Z,100006.31
2022-09-18T11:35:45.934Z,100012.03
2022-09-18T11:40:53.317Z,100002.06
2022-09-18T11:46:14.321Z,100012.09
2022-09-18T11:51:26.720Z,99992.31
2022-09-18T11:56:37.338Z,99996.09
2022-09-18T12:01:43.694Z,99978.16
2022-09-18T12:06:56.214Z,99989.91
2022-09-18T12:12:07.115Z,99965.44
2022-09-18T12:17:19.463Z,99925.72
2022-09-18T12:22:26.262Z,99953.63
2022-09-18T12:27:36.636Z,99936.66
2022-09-18T12:33:06.652Z,99930.38
2022-09-18T12:38:24.169Z,99938.84
2022-09-18T12:44:03.724Z,99930.19
2022-09-18T12:49:20.432Z,99933.75
2022-09-18T12:54:51.135Z,99940.88
2022-09-18T12:59:58.866Z,99926.00
2022-09-18T13:05:05.566Z,99940.81
2022-09-18T13:10:15.802Z,99928.88
2022-09-18T13:15:24.037Z,99919.53
2022-09-18T13:20:32.459Z,99911.72
2022-09-18T13:25:40.325Z,99923.81
2022-09-18T13:30:43.285Z,99917.34
2022-09-18T13:35:55.091Z,99914.78
2022-09-18T13:41:02.724Z,99919.59
2022-09-18T13:46:07.323Z,99919.03
2022-09-18T13:51:18.341Z,99930.44
2022-09-18T13:56:22.627Z,99914.66
2022-09-18T14:01:58.498Z,99923.59
2022-09-18T14:07:01.382Z,99917.88
2022-09-18T14:12:14.225Z,99912.56
2022-09-18T14:17:17.270Z,99912.09
2022-09-18T14:22:26.632Z,99918.13
2022-09-18T14:27:57.044Z,99921.19
2022-09-18T14:33:07.108Z,99918.00
2022-09-18T14:38:25.178Z,99912.97
2022-09-18T14:43:29.410Z,99917.19
2022-09-18T14:48:37.765Z,99917.19
2022-09-18T14:53:44.440Z,99920.72
2022-09-18T14:58:50.562Z,99922.78
2022-09-18T15:03:55.668Z,99911.91
2022-09-18T15:08:58.984Z,99903.19
2022-09-18T15:14:03.313Z,99906.41
2022-09-18T15:19:18.199Z,99897.19
2022-09-18T15:24:21.861Z,99899.53
2022-09-18T15:29:28.546Z,99892.66
2022-09-18T15:34:39.416Z,99885.94
2022-09-18T15:39:42.524Z,99892.69
2022-09-18T15:45:23.403Z,99881.38
2022-09-18T15:50:38.451Z,99888.97
2022-09-18T15:55:53.886Z,99887.34
2022-09-18T16:01:00.657Z,99905.91
2022-09-18T16:06:05.223Z,99900.56
2022-09-18T16:11:38.353Z,99913.25
2022-09-18T16:16:42.622Z,99897.78
2022-09-18T16:21:45.745Z,99895.47
2022-09-18T16:26:48.669Z,99885.19
2022-09-18T16:31:52.987Z,99882.03
2022-09-18T16:36:57.195Z,99877.22
2022-09-18T16:42:00.737Z,99875.53
2022-09-18T16:47:09.636Z,99872.50
2022-09-18T16:52:13.820Z,99872.44
2022-09-18T16:57:20.554Z,99881.31
2022-09-18T17:02:26.216Z,99869.16
2022-09-18T17:07:29.526Z,99869.66
2022-09-18T17:12:32.247Z,99873.31
2022-09-18T17:17:36.237Z,99878.28
2022-09-18T17:22:38.972Z,99879.88
2022-09-18T17:27:43.810Z,99880.59
2022-09-18T17:32:49.105Z,99890.31
2022-09-18T17:37:51.923Z,99898.75
2022-09-18T17:42:54.899Z,99895.50
2022-09-18T17:47:59.066Z,99912.38
2022-09-18T17:53:02.421Z,99912.75
2022-09-18T17:58:05.530Z,99912.28
2022-09-18T18:03:09.682Z,99925.94
2022-09-18T18:08:12.553Z,99917.44
2022-09-18T18:13:18.027Z,99929.13
2022-09-18T18:18:22.513Z,99937.16
2022-09-18T18:23:27.292Z,99934.34
2022-09-18T18:28:31.744Z,99921.31
2022-09-18T18:33:37.121Z,99940.22
2022-09-18T18:38:40.459Z,99933.91
2022-09-18T18:43:44.344Z,99942.06
2022-09-18T18:48:49.339Z,99954.69
2022-09-18T18:53:55.404Z,99952.00
2022-09-18T18:59:00.582Z,99939.13
2022-09-18T19:04:08.203Z,99954.19
2022-09-18T19:09:16.999Z,99950.13
2022-09-18T19:14:25.128Z,99975.53
2022-09-18T19:19:29.618Z,99963.13
2022-09-18T19:24:32.381Z,99958.59
2022-09-18T19:29:35.764Z,99951.50
2022-09-18T19:34:40.393Z,99951.19
2022-09-18T19:39:47.157Z,99953.91
2022-09-18T19:44:53.150Z,99962.75
2022-09-18T19:49:58.890Z,99958.88
2022-09-18T19:55:01.625Z,99955.03
2022-09-18T20:00:05.215Z,99952.19
2022-09-18T20:05:16.464Z,99949.50
2022-09-18T20:10:19.355Z,99979.94
2022-09-18T20:15:22.112Z,99967.66
2022-09-18T20:20:26.567Z,99963.72
2022-09-18T20:25:29.331Z,99953.94
2022-09-18T20:30:31.988Z,99946.03
2022-09-18T20:35:37.072Z,99962.22
2022-09-18T20:40:40.126Z,99953.47
2022-09-18T20:45:42.893Z,99951.59
2022-09-18T20:50:47.031Z,99953.75
2022-09-18T20:55:49.957Z,99962.72
2022-09-18T21:00:53.430Z,99958.72
2022-09-18T21:06:18.809Z,99952.03
2022-09-18T21:11:23.217Z,99959.53
2022-09-18T21:16:27.633Z,99972.38
2022-09-18T21:21:34.303Z,99968.25
2022-09-18T21:26:38.897Z,99962.44
2022-09-18T21:31:43.318Z,99973.91
2022-09-18T21:36:47.468Z,99974.44
2022-09-18T21:41:53.198Z,99983.16
2022-09-18T21:46:58.401Z,99992.44
2022-09-18T21:52:05.660Z,100004.28
2022-09-18T21:57:08.840Z,100016.31
2022-09-18T22:02:13.641Z,100024.94
2022-09-18T22:07:18.494Z,100021.28
2022-09-18T22:12:21.223Z,100038.13
2022-09-18T22:17:25.208Z,100052.00
2022-09-18T22:22:29.385Z,100041.50
2022-09-18T22:27:32.122Z,100048.31
2022-09-18T22:32:34.694Z,100059.69
2022-09-18T22:37:38.792Z,100064.09
2022-09-18T22:42:41.543Z,100074.66
2022-09-18T22:47:44.351Z,100075.38
2022-09-18T22:52:48.429Z,100084.91
2022-09-18T22:57:51.200Z,100100.91
2022-09-18T23:02:53.838Z,100104.72
2022-09-18T23:07:57.925Z,100111.84
2022-09-18T23:13:00.702Z,100119.97
2022-09-18T23:18:03.560Z,100118.91
2022-09-18T23:23:07.692Z,100130.19
2022-09-18T23:28:10.869Z,100127.56
2022-09-18T23:33:13.715Z,100137.72
2022-09-18T23:38:17.836Z,100135.47
2022-09-18T23:43:20.577Z,100147.34
2022-09-18T23:48:23.141Z,100152.50
2022-09-18T23:53:27.367Z,100153.09
2022-09-18T23:58:30.311Z,100168.97
